Private Wetterstation Sandau
Wetterdaten: Montag, 21.01.2013
Datum Zeit Temp. A. Feuchte A. Luftdruck Regen Wind Richtung Richtung Taupunkt Windchill
21.01.2013 00:01 -3,3 C 84 % 1003,4 hPa 0,0 l/m 20,2 km/h (4 Bft) SO 135 -5,6 C -9,4 C
21.01.2013 00:06 -3,4 C 84 % 1003,4 hPa 0,0 l/m 12,2 km/h (2 Bft) NO 45 -5,7 C -8,0 C
21.01.2013 00:11 -3,4 C 84 % 1003,5 hPa 0,0 l/m 15,1 km/h (3 Bft) O 90 -5,7 C -8,6 C
21.01.2013 00:16 -3,3 C 84 % 1003,6 hPa 0,0 l/m 18,0 km/h (3 Bft) O 90 -5,6 C -9,1 C
21.01.2013 00:21 -3,3 C 84 % 1003,4 hPa 0,0 l/m 9,0 km/h (2 Bft) O 90 -5,6 C -7,0 C
21.01.2013 00:26 -3,3 C 84 % 1003,6 hPa 0,0 l/m 8,3 km/h (2 Bft) O 90 -5,6 C -6,7 C
21.01.2013 00:31 -3,2 C 84 % 1003,6 hPa 0,0 l/m 7,2 km/h (2 Bft) O-SO 112 -5,5 C -6,2 C
21.01.2013 00:36 -3,2 C 84 % 1003,5 hPa 0,0 l/m 9,4 km/h (2 Bft) O 90 -5,5 C -7,0 C
21.01.2013 00:41 -3,2 C 84 % 1003,7 hPa 0,0 l/m 8,3 km/h (2 Bft) O-NO 67 -5,5 C -6,6 C
21.01.2013 00:46 -3,2 C 84 % 1003,5 hPa 0,0 l/m 8,6 km/h (2 Bft) O-NO 67 -5,5 C -6,7 C
21.01.2013 00:51 -3,2 C 84 % 1003,7 hPa 0,0 l/m 13,3 km/h (3 Bft) O-SO 112 -5,5 C -8,0 C
21.01.2013 00:56 -3,2 C 84 % 1003,8 hPa 0,0 l/m 20,9 km/h (4 Bft) SO 135 -5,5 C -9,4 C
21.01.2013 01:01 -3,2 C 84 % 1003,7 hPa 0,0 l/m 10,1 km/h (2 Bft) NO 45 -5,5 C -7,2 C
21.01.2013 01:06 -3,1 C 84 % 1003,7 hPa 0,0 l/m 6,1 km/h (2 Bft) O-SO 112 -5,4 C -5,6 C
21.01.2013 01:11 -3,1 C 84 % 1003,7 hPa 0,0 l/m 10,8 km/h (2 Bft) SO 135 -5,4 C -7,2 C
21.01.2013 01:16 -3,1 C 84 % 1003,9 hPa 0,0 l/m 8,6 km/h (2 Bft) O 90 -5,4 C -6,6 C
21.01.2013 01:21 -3,1 C 84 % 1003,8 hPa 0,0 l/m 2,5 km/h (1 Bft) O-SO 112 -5,4 C -3,1 C
21.01.2013 01:26 -3,1 C 84 % 1004,0 hPa 0,0 l/m 22,7 km/h (4 Bft) O-SO 112 -5,4 C -9,6 C
21.01.2013 01:31 -3,1 C 84 % 1003,8 hPa 0,0 l/m 8,3 km/h (2 Bft) O-SO 112 -5,4 C -6,5 C
21.01.2013 01:36 -3,1 C 84 % 1004,0 hPa 0,0 l/m 6,5 km/h (2 Bft) SO 135 -5,4 C -5,8 C
21.01.2013 01:41 -3,1 C 84 % 1003,9 hPa 0,0 l/m 8,3 km/h (2 Bft) O-SO 112 -5,4 C -6,5 C
21.01.2013 01:46 -3,1 C 84 % 1003,9 hPa 0,0 l/m 0,0 km/h (0 Bft) SO 135 -5,4 C -3,1 C
21.01.2013 01:51 -3,1 C 84 % 1003,9 hPa 0,0 l/m 7,2 km/h (2 Bft) O-NO 67 -5,4 C -6,1 C
21.01.2013 01:56 -3,1 C 84 % 1004,0 hPa 0,0 l/m 8,3 km/h (2 Bft) O-SO 112 -5,4 C -6,5 C
21.01.2013 02:01 -3,1 C 84 % 1004,1 hPa 0,0 l/m 5,0 km/h (1 Bft) O-NO 67 -5,4 C -5,1 C
21.01.2013 02:06 -3,1 C 84 % 1004,0 hPa 0,0 l/m 15,8 km/h (3 Bft) O 90 -5,4 C -8,4 C
21.01.2013 02:11 -3,1 C 84 % 1004,1 hPa 0,0 l/m 4,3 km/h (1 Bft) O-SO 112 -5,4 C -3,1 C
21.01.2013 02:16 -3,1 C 84 % 1004,1 hPa 0,0 l/m 14,0 km/h (3 Bft) O-SO 112 -5,4 C -8,0 C
21.01.2013 02:21 -3,1 C 84 % 1004,1 hPa 0,0 l/m 8,3 km/h (2 Bft) O 90 -5,4 C -6,5 C
21.01.2013 02:26 -3,1 C 84 % 1004,0 hPa 0,0 l/m 9,4 km/h (2 Bft) O-SO 112 -5,4 C -6,8 C
21.01.2013 02:31 -3,1 C 84 % 1004,1 hPa 0,0 l/m 9,4 km/h (2 Bft) SO 135 -5,4 C -6,8 C
21.01.2013 02:36 -3,1 C 83 % 1004,1 hPa 0,0 l/m 10,1 km/h (2 Bft) SO 135 -5,6 C -7,0 C
21.01.2013 02:41 -3,1 C 83 % 1004,0 hPa 0,0 l/m 5,0 km/h (1 Bft) O-NO 67 -5,6 C -5,1 C
21.01.2013 02:46 -3,1 C 83 % 1004,2 hPa 0,0 l/m 11,9 km/h (2 Bft) O-SO 112 -5,6 C -7,5 C
21.01.2013 02:51 -3,1 C 83 % 1004,3 hPa 0,0 l/m 6,1 km/h (2 Bft) SO 135 -5,6 C -5,6 C
21.01.2013 02:56 -3,1 C 83 % 1004,2 hPa 0,0 l/m 9,4 km/h (2 Bft) O 90 -5,6 C -6,8 C
21.01.2013 03:01 -3,1 C 84 % 1004,3 hPa 0,0 l/m 11,2 km/h (2 Bft) O 90 -5,4 C -7,4 C
21.01.2013 03:06 -3,1 C 84 % 1004,0 hPa 0,0 l/m 12,6 km/h (3 Bft) O-SO 112 -5,4 C -7,7 C
21.01.2013 03:11 -3,1 C 83 % 1004,0 hPa 0,0 l/m 13,3 km/h (3 Bft) O-NO 67 -5,6 C -7,9 C
21.01.2013 03:16 -3,1 C 83 % 1004,0 hPa 0,0 l/m 9,7 km/h (2 Bft) S-SO 157 -5,6 C -6,9 C
21.01.2013 03:21 -3,1 C 83 % 1004,0 hPa 0,0 l/m 14,4 km/h (3 Bft) O-SO 112 -5,6 C -8,1 C
21.01.2013 03:26 -3,1 C 84 % 1004,0 hPa 0,0 l/m 16,2 km/h (3 Bft) O-NO 67 -5,4 C -8,5 C
21.01.2013 03:31 -3,1 C 83 % 1003,8 hPa 0,0 l/m 16,9 km/h (3 Bft) O-SO 112 -5,6 C -8,6 C
21.01.2013 03:36 -3,1 C 83 % 1003,8 hPa 0,0 l/m 6,5 km/h (2 Bft) O-NO 67 -5,6 C -5,8 C
21.01.2013 03:41 -3,1 C 83 % 1004,0 hPa 0,0 l/m 7,2 km/h (2 Bft) O-NO 67 -5,6 C -6,1 C
21.01.2013 03:46 -3,1 C 84 % 1003,9 hPa 0,0 l/m 16,2 km/h (3 Bft) O-SO 112 -5,4 C -8,5 C
21.01.2013 03:51 -3,1 C 84 % 1004,0 hPa 0,0 l/m 6,5 km/h (2 Bft) O-NO 67 -5,4 C -5,8 C
21.01.2013 03:56 -3,1 C 84 % 1003,8 hPa 0,0 l/m 19,8 km/h (3 Bft) O-NO 67 -5,4 C -9,1 C
21.01.2013 04:01 -3,0 C 84 % 1003,8 hPa 0,0 l/m 16,9 km/h (3 Bft) O-NO 67 -5,3 C -8,5 C
21.01.2013 04:06 -3,0 C 84 % 1003,9 hPa 0,0 l/m 11,2 km/h (2 Bft) O-NO 67 -5,3 C -7,2 C
21.01.2013 04:11 -3,0 C 84 % 1003,8 hPa 0,0 l/m 4,7 km/h (1 Bft) O-NO 67 -5,3 C -4,8 C
21.01.2013 04:16 -2,9 C 84 % 1003,9 hPa 0,0 l/m 14,4 km/h (3 Bft) SO 135 -5,2 C -7,9 C
21.01.2013 04:21 -2,9 C 84 % 1003,8 hPa 0,0 l/m 8,3 km/h (2 Bft) O-NO 67 -5,2 C -6,2 C
21.01.2013 04:26 -2,9 C 84 % 1003,7 hPa 0,0 l/m 8,6 km/h (2 Bft) O 90 -5,2 C -6,3 C
21.01.2013 04:31 -2,9 C 84 % 1003,7 hPa 0,0 l/m 11,9 km/h (2 Bft) S-SO 157 -5,2 C -7,3 C
21.01.2013 04:36 -2,9 C 84 % 1003,6 hPa 0,0 l/m 27,7 km/h (4 Bft) O-NO 67 -5,2 C -10,0 C
21.01.2013 04:41 -2,9 C 84 % 1003,6 hPa 0,0 l/m 12,2 km/h (2 Bft) SO 135 -5,2 C -7,4 C
21.01.2013 04:46 -2,9 C 84 % 1003,5 hPa 0,0 l/m 17,6 km/h (3 Bft) O 90 -5,2 C -8,5 C
21.01.2013 04:51 -2,9 C 84 % 1003,6 hPa 0,0 l/m 8,3 km/h (2 Bft) O 90 -5,2 C -6,2 C
21.01.2013 04:56 -2,9 C 84 % 1003,4 hPa 0,0 l/m 7,9 km/h (2 Bft) SO 135 -5,2 C -6,1 C
21.01.2013 05:01 -2,9 C 84 % 1003,5 hPa 0,0 l/m 17,3 km/h (3 Bft) O-SO 112 -5,2 C -8,4 C
21.01.2013 05:06 -2,9 C 84 % 1003,5 hPa 0,0 l/m 15,8 km/h (3 Bft) O-SO 112 -5,2 C -8,2 C
21.01.2013 05:11 -2,9 C 84 % 1003,4 hPa 0,0 l/m 7,6 km/h (2 Bft) O-NO 67 -5,2 C -6,0 C
21.01.2013 05:16 -2,9 C 84 % 1003,5 hPa 0,0 l/m 14,8 km/h (3 Bft) SO 135 -5,2 C -8,0 C
21.01.2013 05:21 -2,9 C 84 % 1003,5 hPa 0,0 l/m 19,4 km/h (3 Bft) O-NO 67 -5,2 C -8,8 C
21.01.2013 05:26 -2,8 C 84 % 1003,4 hPa 0,0 l/m 12,2 km/h (2 Bft) SO 135 -5,1 C -7,2 C
21.01.2013 05:31 -2,9 C 84 % 1003,5 hPa 0,0 l/m 12,2 km/h (2 Bft) O 90 -5,2 C -7,4 C
21.01.2013 05:36 -2,9 C 84 % 1003,5 hPa 0,0 l/m 10,4 km/h (2 Bft) O-NO 67 -5,2 C -6,9 C
21.01.2013 05:41 -2,9 C 84 % 1003,6 hPa 0,0 l/m 25,2 km/h (4 Bft) O-NO 67 -5,2 C -9,7 C
21.01.2013 05:46 -2,9 C 84 % 1003,4 hPa 0,0 l/m 8,3 km/h (2 Bft) SO 135 -5,2 C -6,2 C
21.01.2013 05:51 -2,9 C 84 % 1003,6 hPa 0,0 l/m 7,9 km/h (2 Bft) O 90 -5,2 C -6,1 C
21.01.2013 05:56 -3,0 C 84 % 1003,5 hPa 0,0 l/m 24,1 km/h (4 Bft) NO 45 -5,3 C -9,6 C
21.01.2013 06:01 -3,0 C 83 % 1003,7 hPa 0,0 l/m 7,9 km/h (2 Bft) O-SO 112 -5,5 C -6,2 C
21.01.2013 06:06 -3,1 C 84 % 1003,6 hPa 0,0 l/m 16,2 km/h (3 Bft) O 90 -5,4 C -8,5 C
21.01.2013 06:11 -3,1 C 84 % 1003,7 hPa 0,0 l/m 8,6 km/h (2 Bft) O-NO 67 -5,4 C -6,6 C
21.01.2013 06:16 -3,1 C 84 % 1003,8 hPa 0,0 l/m 16,6 km/h (3 Bft) O-SO 112 -5,4 C -8,6 C
21.01.2013 06:21 -3,2 C 84 % 1003,8 hPa 0,0 l/m 11,2 km/h (2 Bft) S-SO 157 -5,5 C -7,5 C
21.01.2013 06:26 -3,2 C 85 % 1003,8 hPa 0,0 l/m 20,5 km/h (4 Bft) O-NO 67 -5,4 C -9,4 C
21.01.2013 06:31 -3,2 C 85 % 1003,8 hPa 0,0 l/m 11,9 km/h (2 Bft) O 90 -5,4 C -7,7 C
21.01.2013 06:36 -3,3 C 86 % 1003,8 hPa 0,0 l/m 5,8 km/h (2 Bft) O-NO 67 -5,3 C -5,7 C
21.01.2013 06:41 -3,4 C 86 % 1003,8 hPa 0,0 l/m 4,0 km/h (1 Bft) S-SO 157 -5,4 C -3,4 C
21.01.2013 06:46 -3,4 C 86 % 1003,8 hPa 0,0 l/m 9,0 km/h (2 Bft) O-NO 67 -5,4 C -7,1 C
21.01.2013 06:51 -3,4 C 87 % 1004,0 hPa 0,0 l/m 13,3 km/h (3 Bft) O-NO 67 -5,2 C -8,2 C
21.01.2013 06:56 -3,4 C 87 % 1004,0 hPa 0,0 l/m 7,6 km/h (2 Bft) O-NO 67 -5,2 C -6,6 C
21.01.2013 07:01 -3,4 C 87 % 1004,0 hPa 0,0 l/m 6,8 km/h (2 Bft) O-NO 67 -5,2 C -6,3 C
21.01.2013 07:06 -3,4 C 87 % 1004,1 hPa 0,0 l/m 6,8 km/h (2 Bft) O-SO 112 -5,2 C -6,3 C
21.01.2013 07:11 -3,5 C 88 % 1004,1 hPa 0,0 l/m 8,3 km/h (2 Bft) O 90 -5,2 C -7,0 C
21.01.2013 07:16 -3,5 C 88 % 1004,0 hPa 0,0 l/m 11,9 km/h (2 Bft) O 90 -5,2 C -8,0 C
21.01.2013 07:21 -3,5 C 88 % 1004,1 hPa 0,0 l/m 10,8 km/h (2 Bft) O-NO 67 -5,2 C -7,7 C
21.01.2013 07:26 -3,5 C 88 % 1004,2 hPa 0,0 l/m 18,0 km/h (3 Bft) O-NO 67 -5,2 C -9,3 C
21.01.2013 07:31 -3,5 C 88 % 1004,1 hPa 0,0 l/m 11,2 km/h (2 Bft) O-NO 67 -5,2 C -7,8 C
21.01.2013 07:36 -3,5 C 88 % 1004,3 hPa 0,0 l/m 6,1 km/h (2 Bft) O-NO 67 -5,2 C -6,1 C
21.01.2013 07:41 -3,5 C 88 % 1004,2 hPa 0,0 l/m 12,2 km/h (2 Bft) O 90 -5,2 C -8,1 C
21.01.2013 07:46 -3,5 C 88 % 1004,2 hPa 0,0 l/m 10,8 km/h (2 Bft) SO 135 -5,2 C -7,7 C
21.01.2013 07:51 -3,5 C 88 % 1004,3 hPa 0,0 l/m 4,3 km/h (1 Bft) NO 45 -5,2 C -3,5 C
21.01.2013 07:56 -3,5 C 88 % 1004,4 hPa 0,0 l/m 6,1 km/h (2 Bft) O-NO 67 -5,2 C -6,1 C
21.01.2013 08:01 -3,6 C 89 % 1004,4 hPa 0,0 l/m 5,4 km/h (1 Bft) O-SO 112 -5,1 C -5,9 C
21.01.2013 08:06 -3,5 C 89 % 1004,4 hPa 0,0 l/m 6,1 km/h (2 Bft) N-NO 22 -5,0 C -6,1 C
21.01.2013 08:11 -3,5 C 89 % 1004,5 hPa 0,0 l/m 2,2 km/h (1 Bft) O-SO 112 -5,0 C -3,5 C
21.01.2013 08:16 -3,5 C 89 % 1004,5 hPa 0,0 l/m 8,6 km/h (2 Bft) SO 135 -5,0 C -7,1 C
21.01.2013 08:21 -3,6 C 89 % 1004,5 hPa 0,0 l/m 4,0 km/h (1 Bft) SO 135 -5,1 C -3,6 C
21.01.2013 08:26 -3,6 C 89 % 1004,5 hPa 0,0 l/m 8,6 km/h (2 Bft) O 90 -5,1 C -7,2 C
21.01.2013 08:31 -3,5 C 89 % 1004,7 hPa 0,0 l/m 8,3 km/h (2 Bft) O-NO 67 -5,0 C -7,0 C
21.01.2013 08:36 -3,4 C 89 % 1004,5 hPa 0,0 l/m 14,4 km/h (3 Bft) O 90 -4,9 C -8,5 C
21.01.2013 08:41 -3,4 C 89 % 1004,4 hPa 0,0 l/m 1,8 km/h (1 Bft) NO 45 -4,9 C -3,4 C
21.01.2013 08:46 -3,3 C 89 % 1004,5 hPa 0,0 l/m 13,0 km/h (3 Bft) O-NO 67 -4,8 C -8,0 C
21.01.2013 08:51 -3,3 C 89 % 1004,5 hPa 0,0 l/m 8,3 km/h (2 Bft) SO 135 -4,8 C -6,7 C
21.01.2013 08:56 -3,2 C 88 % 1004,5 hPa 0,0 l/m 4,3 km/h (1 Bft) NO 45 -4,9 C -3,2 C
21.01.2013 09:01 -3,2 C 88 % 1004,5 hPa 0,0 l/m 15,5 km/h (3 Bft) O-NO 67 -4,9 C -8,5 C
21.01.2013 09:06 -3,2 C 88 % 1004,6 hPa 0,0 l/m 5,0 km/h (1 Bft) O 90 -4,9 C -5,2 C
21.01.2013 09:11 -3,2 C 88 % 1004,5 hPa 0,0 l/m 15,1 km/h (3 Bft) O-NO 67 -4,9 C -8,4 C
21.01.2013 09:16 -3,1 C 88 % 1004,7 hPa 0,0 l/m 6,8 km/h (2 Bft) NO 45 -4,8 C -5,9 C
21.01.2013 09:21 -3,1 C 88 % 1004,6 hPa 0,0 l/m 11,5 km/h (2 Bft) O 90 -4,8 C -7,4 C
21.01.2013 09:26 -3,1 C 88 % 1004,6 hPa 0,0 l/m 6,8 km/h (2 Bft) NO 45 -4,8 C -5,9 C
21.01.2013 09:31 -3,0 C 88 % 1004,4 hPa 0,0 l/m 3,6 km/h (1 Bft) NO 45 -4,7 C -3,0 C
21.01.2013 09:36 -2,9 C 88 % 1004,6 hPa 0,0 l/m 7,9 km/h (2 Bft) O 90 -4,6 C -6,1 C
21.01.2013 09:41 -2,8 C 87 % 1004,5 hPa 0,0 l/m 9,4 km/h (2 Bft) O 90 -4,7 C -6,5 C
21.01.2013 09:46 -2,8 C 87 % 1004,4 hPa 0,0 l/m 9,0 km/h (2 Bft) O-NO 67 -4,7 C -6,4 C
21.01.2013 09:51 -2,7 C 87 % 1004,8 hPa 0,0 l/m 6,5 km/h (2 Bft) O 90 -4,6 C -5,3 C
21.01.2013 09:56 -2,7 C 86 % 1004,8 hPa 0,0 l/m 10,1 km/h (2 Bft) SO 135 -4,7 C -6,6 C
21.01.2013 10:01 -2,7 C 86 % 1004,7 hPa 0,0 l/m 7,9 km/h (2 Bft) O 90 -4,7 C -5,9 C
21.01.2013 10:06 -2,7 C 86 % 1004,8 hPa 0,0 l/m 5,8 km/h (2 Bft) O-NO 67 -4,7 C -5,0 C
21.01.2013 10:11 -2,7 C 86 % 1004,8 hPa 0,0 l/m 13,7 km/h (3 Bft) O 90 -4,7 C -7,5 C
21.01.2013 10:16 -2,7 C 86 % 1004,9 hPa 0,0 l/m 5,4 km/h (1 Bft) NO 45 -4,7 C -4,9 C
21.01.2013 10:21 -2,7 C 86 % 1004,9 hPa 0,0 l/m 16,6 km/h (3 Bft) O-SO 112 -4,7 C -8,1 C
21.01.2013 10:26 -2,6 C 86 % 1004,9 hPa 0,0 l/m 5,0 km/h (1 Bft) O-NO 67 -4,6 C -4,5 C
21.01.2013 10:31 -2,6 C 85 % 1004,8 hPa 0,0 l/m 10,8 km/h (2 Bft) O-NO 67 -4,8 C -6,6 C
21.01.2013 10:36 -2,6 C 85 % 1004,7 hPa 0,0 l/m 8,6 km/h (2 Bft) O-SO 112 -4,8 C -6,0 C
21.01.2013 10:41 -2,6 C 85 % 1004,7 hPa 0,0 l/m 3,6 km/h (1 Bft) O-SO 112 -4,8 C -2,6 C
21.01.2013 10:46 -2,5 C 85 % 1004,7 hPa 0,0 l/m 13,7 km/h (3 Bft) O-SO 112 -4,7 C -7,2 C
21.01.2013 10:51 -2,5 C 84 % 1004,7 hPa 0,0 l/m 17,3 km/h (3 Bft) O-NO 67 -4,8 C -7,9 C
21.01.2013 10:56 -2,4 C 84 % 1004,8 hPa 0,0 l/m 16,9 km/h (3 Bft) O 90 -4,7 C -7,7 C
21.01.2013 11:01 -2,4 C 84 % 1004,8 hPa 0,0 l/m 9,7 km/h (2 Bft) O-NO 67 -4,7 C -6,1 C
21.01.2013 11:06 -2,4 C 84 % 1004,8 hPa 0,0 l/m 10,1 km/h (2 Bft) O-SO 112 -4,7 C -6,2 C
21.01.2013 11:11 -2,4 C 84 % 1005,0 hPa 0,0 l/m 18,7 km/h (3 Bft) O 90 -4,7 C -8,1 C
21.01.2013 11:16 -2,3 C 83 % 1004,9 hPa 0,0 l/m 7,6 km/h (2 Bft) O-NO 67 -4,8 C -5,3 C
21.01.2013 11:21 -2,4 C 83 % 1004,9 hPa 0,0 l/m 10,4 km/h (2 Bft) O 90 -4,9 C -6,3 C
21.01.2013 11:26 -2,2 C 83 % 1004,8 hPa 0,0 l/m 19,8 km/h (3 Bft) O-SO 112 -4,7 C -8,0 C
21.01.2013 11:31 -2,2 C 82 % 1004,7 hPa 0,0 l/m 5,8 km/h (2 Bft) SO 135 -4,8 C -4,5 C
21.01.2013 11:36 -2,2 C 82 % 1004,8 hPa 0,0 l/m 10,8 km/h (2 Bft) SO 135 -4,8 C -6,2 C
21.01.2013 11:41 -2,2 C 82 % 1004,8 hPa 0,0 l/m 10,8 km/h (2 Bft) O-NO 67 -4,8 C -6,2 C
21.01.2013 11:46 -2,2 C 82 % 1004,9 hPa 0,0 l/m 8,6 km/h (2 Bft) O 90 -4,8 C -5,5 C
21.01.2013 11:51 -2,2 C 82 % 1004,8 hPa 0,0 l/m 14,4 km/h (3 Bft) O-NO 67 -4,8 C -7,0 C
21.01.2013 11:56 -2,2 C 82 % 1004,7 hPa 0,0 l/m 16,6 km/h (3 Bft) O 90 -4,8 C -7,4 C
21.01.2013 12:01 -2,2 C 81 % 1004,7 hPa 0,0 l/m 16,9 km/h (3 Bft) O-NO 67 -5,0 C -7,5 C
21.01.2013 12:06 -2,2 C 81 % 1004,7 hPa 0,0 l/m 13,7 km/h (3 Bft) O-NO 67 -5,0 C -6,9 C
21.01.2013 12:11 -2,2 C 81 % 1004,7 hPa 0,0 l/m 7,6 km/h (2 Bft) O-SO 112 -5,0 C -5,2 C
21.01.2013 12:16 -2,2 C 81 % 1004,7 hPa 0,0 l/m 18,4 km/h (3 Bft) SO 135 -5,0 C -7,8 C
21.01.2013 12:21 -2,2 C 81 % 1004,5 hPa 0,0 l/m 14,8 km/h (3 Bft) O 90 -5,0 C -7,1 C
21.01.2013 12:26 -2,2 C 81 % 1004,7 hPa 0,0 l/m 17,3 km/h (3 Bft) O-NO 67 -5,0 C -7,6 C
21.01.2013 12:31 -2,2 C 81 % 1004,7 hPa 0,0 l/m 11,2 km/h (2 Bft) O-SO 112 -5,0 C -6,3 C
21.01.2013 12:36 -2,2 C 81 % 1004,6 hPa 0,0 l/m 8,6 km/h (2 Bft) O-SO 112 -5,0 C -5,5 C
21.01.2013 12:41 -2,2 C 80 % 1004,5 hPa 0,0 l/m 6,1 km/h (2 Bft) O-SO 112 -5,2 C -4,6 C
21.01.2013 12:46 -2,2 C 80 % 1004,5 hPa 0,0 l/m 10,8 km/h (2 Bft) O-NO 67 -5,2 C -6,2 C
21.01.2013 12:51 -2,2 C 80 % 1004,5 hPa 0,0 l/m 12,2 km/h (2 Bft) O-NO 67 -5,2 C -6,5 C
21.01.2013 12:56 -2,2 C 80 % 1004,5 hPa 0,0 l/m 22,7 km/h (4 Bft) O-NO 67 -5,2 C -8,4 C
21.01.2013 13:01 -2,1 C 80 % 1004,4 hPa 0,0 l/m 7,9 km/h (2 Bft) O 90 -5,1 C -5,2 C
21.01.2013 13:06 -2,1 C 80 % 1004,4 hPa 0,0 l/m 19,8 km/h (3 Bft) O-SO 112 -5,1 C -7,9 C
21.01.2013 13:11 -2,0 C 80 % 1004,3 hPa 0,0 l/m 10,8 km/h (2 Bft) O-SO 112 -5,0 C -5,9 C
21.01.2013 13:16 -1,9 C 80 % 1004,2 hPa 0,0 l/m 10,4 km/h (2 Bft) O-NO 67 -4,9 C -5,7 C
21.01.2013 13:21 -1,9 C 80 % 1004,2 hPa 0,0 l/m 15,8 km/h (3 Bft) O 90 -4,9 C -6,9 C
21.01.2013 13:26 -1,9 C 80 % 1004,2 hPa 0,0 l/m 16,9 km/h (3 Bft) NO 45 -4,9 C -7,1 C
21.01.2013 13:31 -1,9 C 79 % 1004,2 hPa 0,0 l/m 14,4 km/h (3 Bft) NO 45 -5,0 C -6,6 C
21.01.2013 13:36 -1,9 C 79 % 1004,2 hPa 0,0 l/m 10,8 km/h (2 Bft) O-SO 112 -5,0 C -5,8 C
21.01.2013 13:41 -1,8 C 79 % 1004,1 hPa 0,0 l/m 18,4 km/h (3 Bft) NO 45 -4,9 C -7,3 C
21.01.2013 13:46 -1,9 C 78 % 1004,1 hPa 0,0 l/m 6,5 km/h (2 Bft) O-SO 112 -5,2 C -4,4 C
21.01.2013 13:51 -1,8 C 79 % 1004,1 hPa 0,0 l/m 13,7 km/h (3 Bft) O 90 -4,9 C -6,4 C
21.01.2013 13:56 -1,8 C 79 % 1004,2 hPa 0,0 l/m 13,3 km/h (3 Bft) NO 45 -4,9 C -6,3 C
21.01.2013 14:01 -1,9 C 78 % 1004,2 hPa 0,0 l/m 6,1 km/h (2 Bft) O 90 -5,2 C -4,3 C
21.01.2013 14:06 -1,9 C 78 % 1004,2 hPa 0,0 l/m 14,8 km/h (3 Bft) O-NO 67 -5,2 C -6,7 C
21.01.2013 14:11 -1,9 C 78 % 1004,1 hPa 0,0 l/m 8,6 km/h (2 Bft) SO 135 -5,2 C -5,2 C
21.01.2013 14:16 -2,1 C 78 % 1004,1 hPa 0,0 l/m 8,3 km/h (2 Bft) O-NO 67 -5,4 C -5,3 C
21.01.2013 14:21 -2,1 C 78 % 1004,1 hPa 0,0 l/m 6,5 km/h (2 Bft) NO 45 -5,4 C -4,6 C
21.01.2013 14:26 -2,2 C 78 % 1004,3 hPa 0,0 l/m 23,4 km/h (4 Bft) O 90 -5,5 C -8,5 C
21.01.2013 14:31 -2,2 C 78 % 1004,1 hPa 0,0 l/m 12,2 km/h (2 Bft) O-NO 67 -5,5 C -6,5 C
21.01.2013 14:36 -2,4 C 79 % 1004,2 hPa 0,0 l/m 5,0 km/h (1 Bft) O-SO 112 -5,5 C -4,3 C
21.01.2013 14:41 -2,4 C 78 % 1004,2 hPa 0,0 l/m 12,2 km/h (2 Bft) O-NO 67 -5,7 C -6,8 C
21.01.2013 14:46 -2,5 C 79 % 1004,1 hPa 0,0 l/m 6,1 km/h (2 Bft) O 90 -5,6 C -4,9 C
21.01.2013 14:51 -2,5 C 79 % 1004,1 hPa 0,0 l/m 19,1 km/h (3 Bft) SO 135 -5,6 C -8,3 C
21.01.2013 14:56 -2,6 C 79 % 1004,1 hPa 0,0 l/m 16,9 km/h (3 Bft) SO 135 -5,7 C -8,0 C
21.01.2013 15:01 -2,6 C 79 % 1004,1 hPa 0,0 l/m 14,0 km/h (3 Bft) O 90 -5,7 C -7,4 C
21.01.2013 15:06 -2,7 C 79 % 1004,1 hPa 0,0 l/m 6,5 km/h (2 Bft) O-SO 112 -5,8 C -5,3 C
21.01.2013 15:11 -2,7 C 78 % 1004,1 hPa 0,0 l/m 5,4 km/h (1 Bft) O-SO 112 -6,0 C -4,9 C
21.01.2013 15:16 -2,7 C 78 % 1004,2 hPa 0,0 l/m 7,9 km/h (2 Bft) NO 45 -6,0 C -5,9 C
21.01.2013 15:21 -2,8 C 78 % 1004,2 hPa 0,0 l/m 15,8 km/h (3 Bft) O 90 -6,1 C -8,0 C
21.01.2013 15:26 -2,8 C 78 % 1004,4 hPa 0,0 l/m 13,0 km/h (3 Bft) NO 45 -6,1 C -7,4 C
21.01.2013 15:31 -2,9 C 77 % 1004,4 hPa 0,0 l/m 8,3 km/h (2 Bft) NO 45 -6,4 C -6,2 C
21.01.2013 15:36 -2,9 C 77 % 1004,4 hPa 0,0 l/m 13,7 km/h (3 Bft) O-SO 112 -6,4 C -7,7 C
21.01.2013 15:41 -3,1 C 76 % 1004,5 hPa 0,0 l/m 8,3 km/h (2 Bft) O-SO 112 -6,7 C -6,5 C
21.01.2013 15:46 -3,2 C 76 % 1004,4 hPa 0,0 l/m 12,6 km/h (3 Bft) O-NO 67 -6,8 C -7,8 C
21.01.2013 15:51 -3,2 C 76 % 1004,5 hPa 0,0 l/m 12,6 km/h (3 Bft) O-SO 112 -6,8 C -7,8 C
21.01.2013 15:56 -3,2 C 76 % 1004,5 hPa 0,0 l/m 8,3 km/h (2 Bft) O-NO 67 -6,8 C -6,6 C
21.01.2013 16:01 -3,4 C 74 % 1004,5 hPa 0,0 l/m 19,8 km/h (3 Bft) O-SO 112 -7,4 C -9,5 C
21.01.2013 16:06 -3,6 C 74 % 1004,5 hPa 0,0 l/m 7,2 km/h (2 Bft) O-SO 112 -7,5 C -6,7 C
21.01.2013 16:11 -3,6 C 74 % 1004,5 hPa 0,0 l/m 7,2 km/h (2 Bft) O 90 -7,5 C -6,7 C
21.01.2013 16:16 -3,7 C 75 % 1004,5 hPa 0,0 l/m 19,4 km/h (3 Bft) O 90 -7,5 C -9,8 C
21.01.2013 16:21 -3,8 C 74 % 1004,5 hPa 0,0 l/m 6,5 km/h (2 Bft) NO 45 -7,7 C -6,6 C
21.01.2013 16:26 -3,9 C 75 % 1004,4 hPa 0,0 l/m 12,6 km/h (3 Bft) O-NO 67 -7,7 C -8,7 C
21.01.2013 16:31 -3,9 C 74 % 1004,5 hPa 0,0 l/m 9,4 km/h (2 Bft) O 90 -7,8 C -7,8 C
21.01.2013 16:36 -4,1 C 73 % 1004,5 hPa 0,0 l/m 9,0 km/h (2 Bft) N-NO 22 -8,2 C -7,9 C
21.01.2013 16:41 -4,1 C 73 % 1004,7 hPa 0,0 l/m 13,7 km/h (3 Bft) SO 135 -8,2 C -9,2 C
21.01.2013 16:46 -4,1 C 73 % 1004,8 hPa 0,0 l/m 9,7 km/h (2 Bft) S-SO 157 -8,2 C -8,1 C
21.01.2013 16:51 -4,1 C 73 % 1004,8 hPa 0,0 l/m 10,1 km/h (2 Bft) O 90 -8,2 C -8,2 C
21.01.2013 16:56 -4,2 C 74 % 1004,8 hPa 0,0 l/m 9,7 km/h (2 Bft) O-SO 112 -8,1 C -8,2 C
21.01.2013 17:01 -4,2 C 74 % 1004,8 hPa 0,0 l/m 4,0 km/h (1 Bft) O-NO 67 -8,1 C -4,2 C
21.01.2013 17:06 -4,2 C 74 % 1004,8 hPa 0,0 l/m 6,5 km/h (2 Bft) O 90 -8,1 C -7,1 C
21.01.2013 17:11 -4,2 C 74 % 1004,8 hPa 0,0 l/m 13,7 km/h (3 Bft) O-SO 112 -8,1 C -9,3 C
21.01.2013 17:16 -4,2 C 73 % 1005,0 hPa 0,0 l/m 21,2 km/h (4 Bft) O-NO 67 -8,3 C -10,7 C
21.01.2013 17:21 -4,4 C 71 % 1004,9 hPa 0,0 l/m 10,4 km/h (2 Bft) NO 45 -8,8 C -8,7 C
21.01.2013 17:26 -4,4 C 71 % 1004,9 hPa 0,0 l/m 6,8 km/h (2 Bft) O 90 -8,8 C -7,4 C
21.01.2013 17:31 -4,5 C 71 % 1005,0 hPa 0,0 l/m 11,5 km/h (2 Bft) O-SO 112 -8,9 C -9,1 C
21.01.2013 17:36 -4,5 C 70 % 1005,1 hPa 0,0 l/m 14,8 km/h (3 Bft) O-SO 112 -9,1 C -9,9 C
21.01.2013 17:41 -4,6 C 68 % 1005,1 hPa 0,0 l/m 12,2 km/h (2 Bft) SO 135 -9,6 C -9,4 C
21.01.2013 17:46 -4,7 C 68 % 1005,1 hPa 0,0 l/m 13,7 km/h (3 Bft) O-SO 112 -9,7 C -9,9 C
21.01.2013 17:51 -4,7 C 67 % 1005,1 hPa 0,0 l/m 20,2 km/h (4 Bft) O-NO 67 -9,9 C -11,2 C
21.01.2013 17:56 -4,8 C 68 % 1005,2 hPa 0,0 l/m 17,6 km/h (3 Bft) O-SO 112 -9,8 C -10,9 C
21.01.2013 18:01 -4,7 C 69 % 1005,3 hPa 0,0 l/m 16,9 km/h (3 Bft) O 90 -9,5 C -10,6 C
21.01.2013 18:06 -4,8 C 70 % 1005,3 hPa 0,0 l/m 8,6 km/h (2 Bft) O-NO 67 -9,4 C -8,6 C
21.01.2013 18:11 -5,0 C 71 % 1005,5 hPa 0,0 l/m 20,9 km/h (4 Bft) O-SO 112 -9,4 C -11,7 C
21.01.2013 18:16 -5,1 C 72 % 1005,3 hPa 0,0 l/m 8,3 km/h (2 Bft) O-NO 67 -9,3 C -8,8 C
21.01.2013 18:21 -5,2 C 74 % 1005,6 hPa 0,0 l/m 8,6 km/h (2 Bft) O-NO 67 -9,1 C -9,1 C
21.01.2013 18:26 -5,4 C 75 % 1005,6 hPa 0,0 l/m 11,9 km/h (2 Bft) O 90 -9,1 C -10,3 C
21.01.2013 18:31 -5,5 C 77 % 1005,5 hPa 0,0 l/m 11,2 km/h (2 Bft) O-NO 67 -8,9 C -10,2 C
21.01.2013 18:36 -5,5 C 78 % 1005,6 hPa 0,0 l/m 13,3 km/h (3 Bft) O-NO 67 -8,7 C -10,8 C
21.01.2013 18:41 -5,6 C 78 % 1005,7 hPa 0,0 l/m 16,9 km/h (3 Bft) O 90 -8,8 C -11,7 C
21.01.2013 18:46 -5,6 C 79 % 1005,6 hPa 0,0 l/m 11,9 km/h (2 Bft) O-NO 67 -8,6 C -10,6 C
21.01.2013 18:51 -5,7 C 80 % 1005,6 hPa 0,0 l/m 5,8 km/h (2 Bft) O-SO 112 -8,6 C -8,5 C
21.01.2013 18:56 -5,8 C 81 % 1005,5 hPa 0,0 l/m 18,0 km/h (3 Bft) O-SO 112 -8,5 C -12,2 C
21.01.2013 19:01 -5,8 C 81 % 1005,6 hPa 0,0 l/m 5,0 km/h (1 Bft) O-SO 112 -8,5 C -8,2 C
21.01.2013 19:06 -5,9 C 82 % 1005,7 hPa 0,0 l/m 13,7 km/h (3 Bft) O-SO 112 -8,5 C -11,4 C
21.01.2013 19:11 -5,9 C 82 % 1005,8 hPa 0,0 l/m 5,4 km/h (1 Bft) O-NO 67 -8,5 C -8,5 C
21.01.2013 19:16 -5,9 C 82 % 1005,8 hPa 0,0 l/m 4,0 km/h (1 Bft) O-NO 67 -8,5 C -5,9 C
21.01.2013 19:21 -5,9 C 82 % 1005,8 hPa 0,0 l/m 14,0 km/h (3 Bft) O-NO 67 -8,5 C -11,5 C
21.01.2013 19:26 -5,9 C 83 % 1005,9 hPa 0,0 l/m 8,3 km/h (2 Bft) NO 45 -8,3 C -9,8 C
21.01.2013 19:31 -5,9 C 83 % 1005,9 hPa 0,0 l/m 5,0 km/h (1 Bft) O-NO 67 -8,3 C -8,3 C
21.01.2013 19:36 -5,9 C 83 % 1005,9 hPa 0,0 l/m 7,9 km/h (2 Bft) O-NO 67 -8,3 C -9,6 C
21.01.2013 19:41 -5,9 C 83 % 1005,9 hPa 0,0 l/m 3,6 km/h (1 Bft) O-NO 67 -8,3 C -5,9 C
21.01.2013 19:46 -5,9 C 84 % 1005,9 hPa 0,0 l/m 5,4 km/h (1 Bft) O-NO 67 -8,2 C -8,5 C
21.01.2013 19:51 -5,9 C 84 % 1005,9 hPa 0,0 l/m 6,1 km/h (2 Bft) NO 45 -8,2 C -8,9 C
21.01.2013 19:56 -5,9 C 84 % 1006,2 hPa 0,0 l/m 9,7 km/h (2 Bft) O 90 -8,2 C -10,3 C
21.01.2013 20:01 -5,9 C 84 % 1006,2 hPa 0,0 l/m 5,8 km/h (2 Bft) O 90 -8,2 C -8,7 C
21.01.2013 20:06 -5,9 C 85 % 1006,1 hPa 0,0 l/m 4,0 km/h (1 Bft) O-SO 112 -8,0 C -5,9 C
21.01.2013 20:11 -5,9 C 85 % 1006,2 hPa 0,0 l/m 6,1 km/h (2 Bft) O-NO 67 -8,0 C -8,9 C
21.01.2013 20:16 -5,9 C 85 % 1006,2 hPa 0,0 l/m 4,3 km/h (1 Bft) O-NO 67 -8,0 C -5,9 C
21.01.2013 20:21 -5,9 C 85 % 1006,2 hPa 0,0 l/m 9,4 km/h (2 Bft) O-NO 67 -8,0 C -10,2 C
21.01.2013 20:26 -5,9 C 85 % 1006,3 hPa 0,0 l/m 3,2 km/h (1 Bft) O-NO 67 -8,0 C -5,9 C
21.01.2013 20:31 -5,9 C 85 % 1006,3 hPa 0,0 l/m 2,5 km/h (1 Bft) O-SO 112 -8,0 C -5,9 C
21.01.2013 20:36 -5,9 C 85 % 1006,3 hPa 0,0 l/m 9,0 km/h (2 Bft) O-SO 112 -8,0 C -10,0 C
21.01.2013 20:41 -5,9 C 85 % 1006,3 hPa 0,0 l/m 7,6 km/h (2 Bft) NO 45 -8,0 C -9,5 C
21.01.2013 20:46 -5,9 C 85 % 1006,3 hPa 0,0 l/m 9,7 km/h (2 Bft) NO 45 -8,0 C -10,3 C
21.01.2013 20:51 -5,9 C 85 % 1006,4 hPa 0,0 l/m 4,7 km/h (1 Bft) O 90 -8,0 C -8,1 C
21.01.2013 20:56 -5,9 C 85 % 1006,5 hPa 0,0 l/m 3,6 km/h (1 Bft) O-NO 67 -8,0 C -5,9 C
21.01.2013 21:01 -5,8 C 85 % 1006,5 hPa 0,0 l/m 4,7 km/h (1 Bft) NO 45 -7,9 C -8,0 C
21.01.2013 21:06 -5,8 C 85 % 1006,4 hPa 0,0 l/m 4,0 km/h (1 Bft) NO 45 -7,9 C -5,8 C
21.01.2013 21:11 -5,9 C 85 % 1006,5 hPa 0,0 l/m 4,7 km/h (1 Bft) NO 45 -8,0 C -8,1 C
21.01.2013 21:16 -5,9 C 85 % 1006,5 hPa 0,0 l/m 7,6 km/h (2 Bft) O-NO 67 -8,0 C -9,5 C
21.01.2013 21:21 -5,8 C 85 % 1006,4 hPa 0,0 l/m 7,6 km/h (2 Bft) O-SO 112 -7,9 C -9,4 C
21.01.2013 21:26 -5,8 C 85 % 1006,4 hPa 0,0 l/m 5,8 km/h (2 Bft) NO 45 -7,9 C -8,6 C
21.01.2013 21:31 -5,8 C 85 % 1006,4 hPa 0,0 l/m 1,8 km/h (1 Bft) O-NO 67 -7,9 C -5,8 C
21.01.2013 21:36 -5,9 C 85 % 1006,3 hPa 0,0 l/m 10,1 km/h (2 Bft) SO 135 -8,0 C -10,4 C
21.01.2013 21:41 -5,9 C 85 % 1006,4 hPa 0,0 l/m 5,0 km/h (1 Bft) O-SO 112 -8,0 C -8,3 C
21.01.2013 21:46 -5,9 C 85 % 1006,4 hPa 0,0 l/m 11,9 km/h (2 Bft) O-NO 67 -8,0 C -10,9 C
21.01.2013 21:51 -5,9 C 85 % 1006,5 hPa 0,0 l/m 4,3 km/h (1 Bft) O-SO 112 -8,0 C -5,9 C
21.01.2013 21:56 -5,9 C 85 % 1006,6 hPa 0,0 l/m 9,4 km/h (2 Bft) NO 45 -8,0 C -10,2 C
21.01.2013 22:01 -5,9 C 85 % 1006,7 hPa 0,0 l/m 6,1 km/h (2 Bft) O-NO 67 -8,0 C -8,9 C
21.01.2013 22:06 -5,9 C 85 % 1006,7 hPa 0,0 l/m 7,9 km/h (2 Bft) O-NO 67 -8,0 C -9,6 C
21.01.2013 22:11 -6,0 C 85 % 1006,7 hPa 0,0 l/m 6,1 km/h (2 Bft) O-NO 67 -8,1 C -9,0 C
21.01.2013 22:16 -6,1 C 85 % 1006,8 hPa 0,0 l/m 5,8 km/h (2 Bft) O-NO 67 -8,2 C -8,9 C
21.01.2013 22:21 -6,0 C 85 % 1006,9 hPa 0,0 l/m 7,2 km/h (2 Bft) SO 135 -8,1 C -9,5 C
21.01.2013 22:26 -6,1 C 85 % 1006,7 hPa 0,0 l/m 18,4 km/h (3 Bft) O-SO 112 -8,2 C -12,6 C
21.01.2013 22:31 -6,1 C 85 % 1006,7 hPa 0,0 l/m 5,8 km/h (2 Bft) O 90 -8,2 C -8,9 C
21.01.2013 22:36 -6,1 C 85 % 1007,0 hPa 0,0 l/m 10,1 km/h (2 Bft) O-SO 112 -8,2 C -10,6 C
21.01.2013 22:41 -6,1 C 85 % 1006,8 hPa 0,0 l/m 10,1 km/h (2 Bft) O-SO 112 -8,2 C -10,6 C
21.01.2013 22:46 -6,1 C 85 % 1006,8 hPa 0,0 l/m 8,3 km/h (2 Bft) NO 45 -8,2 C -10,0 C
21.01.2013 22:51 -6,1 C 85 % 1006,7 hPa 0,0 l/m 4,7 km/h (1 Bft) O 90 -8,2 C -8,3 C
21.01.2013 22:56 -6,1 C 85 % 1006,9 hPa 0,0 l/m 14,4 km/h (3 Bft) O 90 -8,2 C -11,8 C
21.01.2013 23:01 -6,1 C 85 % 1006,9 hPa 0,0 l/m 7,6 km/h (2 Bft) O-NO 67 -8,2 C -9,7 C
21.01.2013 23:06 -6,1 C 85 % 1006,7 hPa 0,0 l/m 10,1 km/h (2 Bft) NO 45 -8,2 C -10,6 C
21.01.2013 23:11 -6,2 C 85 % 1006,9 hPa 0,0 l/m 9,4 km/h (2 Bft) O-NO 67 -8,3 C -10,5 C
21.01.2013 23:16 -6,2 C 85 % 1007,0 hPa 0,0 l/m 6,8 km/h (2 Bft) SO 135 -8,3 C -9,5 C
21.01.2013 23:21 -6,2 C 85 % 1006,9 hPa 0,0 l/m 14,8 km/h (3 Bft) O-SO 112 -8,3 C -12,0 C
21.01.2013 23:26 -6,2 C 85 % 1006,9 hPa 0,0 l/m 10,8 km/h (2 Bft) O-NO 67 -8,3 C -11,0 C
21.01.2013 23:31 -6,2 C 85 % 1007,2 hPa 0,0 l/m 9,4 km/h (2 Bft) O-NO 67 -8,3 C -10,5 C
21.01.2013 23:36 -6,2 C 85 % 1006,9 hPa 0,0 l/m 15,1 km/h (3 Bft) O-SO 112 -8,3 C -12,1 C
21.01.2013 23:41 -6,4 C 85 % 1007,1 hPa 0,0 l/m 10,4 km/h (2 Bft) O-SO 112 -8,5 C -11,1 C
21.01.2013 23:46 -6,4 C 85 % 1007,1 hPa 0,0 l/m 10,1 km/h (2 Bft) O-NO 67 -8,5 C -11,0 C
21.01.2013 23:51 -6,4 C 85 % 1006,9 hPa 0,0 l/m 6,1 km/h (2 Bft) NO 45 -8,5 C -9,4 C
21.01.2013 23:56 -6,4 C 85 % 1007,0 hPa 0,0 l/m 12,6 km/h (3 Bft) NO 45 -8,5 C -11,7 C
_ Min-Zeit 23:41 17:51 00:01 - 01:46 - - 17:51 22:26
Minimum _ -6,4 C 67 % 1003,4 hPa - 0,0 km/h (0 Bft) - - -9,9 C -12,6 C
_ Max-Zeit 13:41 08:01 23:31 00:01 04:36 - - 09:51 10:41
Maximum _ -1,8 C 89 % 1007,2 hPa 0,0 l/m 27,7 km/h
O-NO (4 Bft)
- - -4,6 C -2,6 C
Durchschnitt _ -3,7 C 82 % 1004,8 hPa #0,0 l/m 10,5 km/h (2 Bft) O-NO - -6,3 C -7,5 C
(c) by David Heller